createdAt,value
2022-12-26T00:00:20.013Z,100297.47
2022-12-26T00:02:46.539Z,100302.25
2022-12-26T00:05:12.956Z,100242.94
2022-12-26T00:07:39.429Z,100318.53
2022-12-26T00:10:06.407Z,100283.53
2022-12-26T00:12:32.925Z,100315.00
2022-12-26T00:14:59.294Z,100314.00
2022-12-26T00:17:25.669Z,100304.44
2022-12-26T00:19:52.027Z,100270.34
2022-12-26T00:22:18.613Z,100306.97
2022-12-26T00:24:44.959Z,100323.97
2022-12-26T00:27:11.303Z,100323.81
2022-12-26T00:29:37.642Z,100318.66
2022-12-26T00:32:04.325Z,100342.00
2022-12-26T00:34:30.865Z,100291.59
2022-12-26T00:36:57.214Z,100349.38
2022-12-26T00:39:23.537Z,100303.50
2022-12-26T00:41:49.891Z,100329.97
2022-12-26T00:44:16.246Z,100317.88
2022-12-26T00:46:42.642Z,100331.47
2022-12-26T00:49:09.051Z,100327.44
2022-12-26T00:51:38.265Z,100361.16
2022-12-26T00:54:04.673Z,100339.41
2022-12-26T00:56:31.002Z,100352.56
2022-12-26T00:58:57.369Z,100347.06
2022-12-26T01:01:24.069Z,100351.63
2022-12-26T01:03:51.265Z,100325.00
2022-12-26T01:06:18.249Z,100391.44
2022-12-26T01:08:44.998Z,100340.16
2022-12-26T01:11:13.753Z,100374.16
2022-12-26T01:13:40.544Z,100367.88
2022-12-26T01:16:07.939Z,100341.59
2022-12-26T01:18:34.941Z,100359.53
2022-12-26T01:21:04.481Z,100320.91
2022-12-26T01:23:30.901Z,100379.78
2022-12-26T01:26:16.940Z,100368.91
2022-12-26T01:28:43.654Z,100364.59
2022-12-26T01:31:10.035Z,100379.16
2022-12-26T01:33:36.553Z,100336.41
2022-12-26T01:36:04.225Z,100393.28
2022-12-26T01:38:30.586Z,100368.53
2022-12-26T01:41:15.569Z,100395.94
2022-12-26T01:44:00.024Z,100392.75
2022-12-26T01:46:35.732Z,100353.69
2022-12-26T01:49:08.989Z,100421.41
2022-12-26T01:51:40.070Z,100402.88
2022-12-26T01:54:37.948Z,100315.66
2022-12-26T01:56:56.253Z,100380.09
2022-12-26T01:59:26.479Z,100355.94
2022-12-26T02:01:54.648Z,100406.03
2022-12-26T02:04:48.313Z,100365.69
2022-12-26T02:07:14.925Z,100394.03
2022-12-26T02:09:41.585Z,100397.16
2022-12-26T02:12:36.081Z,100328.56
2022-12-26T02:15:03.635Z,100376.09
2022-12-26T02:17:30.095Z,100418.06
2022-12-26T02:20:01.937Z,100415.34
2022-12-26T02:22:47.114Z,100425.00
2022-12-26T02:25:58.535Z,100416.00
2022-12-26T02:28:53.064Z,100430.09
2022-12-26T02:31:32.022Z,100444.25
2022-12-26T02:34:15.912Z,100459.09
2022-12-26T02:37:18.549Z,100448.09
2022-12-26T02:40:04.039Z,100451.72
2022-12-26T02:42:47.424Z,100436.41
2022-12-26T02:45:46.842Z,100447.81
2022-12-26T02:49:02.023Z,100447.78
2022-12-26T02:52:19.728Z,100465.53
2022-12-26T02:55:12.851Z,100393.66
2022-12-26T02:58:09.289Z,100447.53
2022-12-26T03:00:58.184Z,100427.53
2022-12-26T03:03:48.828Z,100393.75
2022-12-26T03:06:48.041Z,100429.03
2022-12-26T03:09:37.248Z,100456.41
2022-12-26T03:12:26.997Z,100420.97
2022-12-26T03:15:04.216Z,100464.13
2022-12-26T03:17:40.664Z,100469.03
2022-12-26T03:20:17.544Z,100471.00
2022-12-26T03:22:57.005Z,100441.66
2022-12-26T03:25:59.325Z,100467.97
2022-12-26T03:28:26.842Z,100446.63
2022-12-26T03:30:55.864Z,100447.03
2022-12-26T03:33:40.996Z,100472.91
2022-12-26T03:36:11.268Z,100464.34
2022-12-26T03:39:13.022Z,100454.88
2022-12-26T03:42:17.977Z,100451.88
2022-12-26T03:45:05.802Z,100469.13
2022-12-26T03:48:18.637Z,100422.66
2022-12-26T03:51:09.049Z,100404.47
2022-12-26T03:54:06.370Z,100429.28
2022-12-26T03:57:01.376Z,100455.56
2022-12-26T03:59:52.863Z,100455.56
2022-12-26T04:02:39.916Z,100394.13
2022-12-26T04:05:27.272Z,100446.28
2022-12-26T04:08:19.187Z,100437.94
2022-12-26T04:11:11.072Z,100468.88
2022-12-26T04:14:12.045Z,100485.09
2022-12-26T04:17:03.382Z,100484.69
2022-12-26T04:19:32.423Z,100480.78
2022-12-26T04:22:27.559Z,100455.22
2022-12-26T04:25:50.816Z,100462.69
2022-12-26T04:28:38.520Z,100476.09
2022-12-26T04:31:33.039Z,100463.06
2022-12-26T04:34:28.888Z,100417.63
2022-12-26T04:37:21.854Z,100494.63
2022-12-26T04:40:10.063Z,100494.22
2022-12-26T04:42:57.379Z,100423.88
2022-12-26T04:45:25.952Z,100477.72
2022-12-26T04:48:11.035Z,100464.16
2022-12-26T04:50:52.188Z,100435.81
2022-12-26T04:53:19.976Z,100476.09
2022-12-26T04:55:46.305Z,100468.97
2022-12-26T04:58:12.634Z,100453.31
2022-12-26T05:00:39.137Z,100471.38
2022-12-26T05:03:24.114Z,100482.06
2022-12-26T05:06:10.505Z,100486.94
2022-12-26T05:08:59.106Z,100466.03
2022-12-26T05:11:26.681Z,100468.31
2022-12-26T05:13:55.368Z,100492.56
2022-12-26T05:16:41.729Z,100487.56
2022-12-26T05:19:29.474Z,100460.19
2022-12-26T05:22:14.945Z,100476.09
2022-12-26T05:25:00.581Z,100482.00
2022-12-26T05:28:00.882Z,100423.13
2022-12-26T05:30:27.324Z,100475.72
2022-12-26T05:33:12.289Z,100464.31
2022-12-26T05:35:39.374Z,100481.78
2022-12-26T05:38:06.179Z,100482.00
2022-12-26T05:40:32.583Z,100464.97
2022-12-26T05:42:58.973Z,100450.38
2022-12-26T05:45:25.371Z,100438.50
2022-12-26T05:47:58.394Z,100475.13
2022-12-26T05:50:24.724Z,100478.34
2022-12-26T05:52:51.072Z,100442.94
2022-12-26T05:55:18.041Z,100487.03
2022-12-26T05:57:44.420Z,100474.28
2022-12-26T06:00:11.802Z,100392.66
2022-12-26T06:02:38.724Z,100421.06
2022-12-26T06:05:05.494Z,100410.03
2022-12-26T06:07:31.856Z,100482.59
2022-12-26T06:09:58.236Z,100423.28
2022-12-26T06:12:24.547Z,100500.13
2022-12-26T06:14:50.926Z,100441.47
2022-12-26T06:17:17.279Z,100493.38
2022-12-26T06:19:46.927Z,100499.59
2022-12-26T06:22:13.621Z,100478.75
2022-12-26T06:24:40.226Z,100495.06
2022-12-26T06:27:06.584Z,100459.03
2022-12-26T06:29:32.975Z,100479.81
2022-12-26T06:31:59.447Z,100506.06
2022-12-26T06:34:27.620Z,100462.50
2022-12-26T06:36:55.402Z,100430.97
2022-12-26T06:39:22.538Z,100453.75
2022-12-26T06:41:48.860Z,100485.19
2022-12-26T06:44:18.523Z,100494.88
2022-12-26T06:46:45.431Z,100430.22
2022-12-26T06:49:11.809Z,100506.41
2022-12-26T06:51:38.228Z,100514.75
2022-12-26T06:54:04.860Z,100505.75
2022-12-26T06:56:32.339Z,100496.34
2022-12-26T06:59:01.017Z,100492.16
2022-12-26T07:01:29.085Z,100507.69
2022-12-26T07:03:56.476Z,100512.06
2022-12-26T07:06:31.940Z,100529.09
2022-12-26T07:09:05.328Z,100533.63
2022-12-26T07:11:36.930Z,100541.44
2022-12-26T07:14:04.363Z,100549.56
2022-12-26T07:16:31.316Z,100480.75
2022-12-26T07:18:58.586Z,100473.91
2022-12-26T07:21:26.276Z,100538.81
2022-12-26T07:23:53.850Z,100560.81
2022-12-26T07:26:20.616Z,100530.28
2022-12-26T07:28:46.997Z,100555.19
2022-12-26T07:31:18.485Z,100556.81
2022-12-26T07:33:52.612Z,100554.31
2022-12-26T07:36:19.632Z,100583.63
2022-12-26T07:38:46.901Z,100505.50
2022-12-26T07:41:32.014Z,100569.63
2022-12-26T07:43:58.429Z,100561.22
2022-12-26T07:46:24.769Z,100505.22
2022-12-26T07:48:51.179Z,100555.63
2022-12-26T07:51:17.552Z,100499.69
2022-12-26T07:53:43.903Z,100554.91
2022-12-26T07:56:10.249Z,100561.09
2022-12-26T07:58:36.818Z,100547.09
2022-12-26T08:01:04.961Z,100583.34
2022-12-26T08:03:31.566Z,100563.56
2022-12-26T08:05:58.412Z,100542.97
2022-12-26T08:08:24.739Z,100492.06
2022-12-26T08:11:06.228Z,100569.63
2022-12-26T08:13:33.946Z,100583.06
2022-12-26T08:16:05.536Z,100586.38
2022-12-26T08:18:31.972Z,100559.63
2022-12-26T08:20:58.607Z,100565.13
2022-12-26T08:23:25.061Z,100564.88
2022-12-26T08:25:51.463Z,100554.47
2022-12-26T08:28:18.043Z,100567.91
2022-12-26T08:30:45.437Z,100587.09
2022-12-26T08:33:12.816Z,100580.03
2022-12-26T08:35:40.359Z,100597.75
2022-12-26T08:38:08.042Z,100610.34
2022-12-26T08:40:43.041Z,100590.22
2022-12-26T08:46:03.148Z,100611.94
2022-12-26T08:48:30.281Z,100590.81
2022-12-26T08:51:02.313Z,100624.13
2022-12-26T08:53:30.517Z,100609.31
2022-12-26T08:55:57.594Z,100604.66
2022-12-26T08:58:24.066Z,100636.41
2022-12-26T09:00:55.265Z,100639.53
2022-12-26T09:03:22.375Z,100620.34
2022-12-26T09:05:49.193Z,100610.50
2022-12-26T09:08:15.573Z,100584.94
2022-12-26T09:10:41.998Z,100583.47
2022-12-26T09:13:08.436Z,100604.28
2022-12-26T09:15:34.873Z,100550.81
2022-12-26T09:18:01.290Z,100605.28
2022-12-26T09:20:27.690Z,100619.09
2022-12-26T09:22:55.341Z,100634.44
2022-12-26T09:25:25.041Z,100627.00
2022-12-26T09:27:58.807Z,100655.88
2022-12-26T09:30:25.606Z,100645.88
2022-12-26T09:32:53.042Z,100656.00
2022-12-26T09:35:19.587Z,100585.41
2022-12-26T09:37:45.971Z,100647.53
2022-12-26T09:40:25.493Z,100664.50
2022-12-26T09:43:53.577Z,100667.56
2022-12-26T09:46:40.827Z,100605.44
2022-12-26T09:49:20.225Z,100671.38
2022-12-26T09:51:52.582Z,100668.53
2022-12-26T09:54:33.632Z,100687.94
2022-12-26T09:57:05.280Z,100602.03
2022-12-26T09:59:57.501Z,100677.16
2022-12-26T10:02:26.059Z,100705.78
2022-12-26T10:04:54.739Z,100696.41
2022-12-26T10:07:24.053Z,100700.63
2022-12-26T10:09:59.493Z,100691.03
2022-12-26T10:12:51.939Z,100678.19
2022-12-26T10:15:36.825Z,100697.09
2022-12-26T10:18:18.048Z,100664.94
2022-12-26T10:20:59.299Z,100689.50
2022-12-26T10:23:39.737Z,100687.56
2022-12-26T10:26:13.463Z,100675.81
2022-12-26T10:28:59.845Z,100669.31
2022-12-26T10:31:50.612Z,100686.81
2022-12-26T10:34:36.719Z,100681.69
2022-12-26T10:37:42.029Z,100675.75
2022-12-26T10:40:17.318Z,100688.41
2022-12-26T10:42:47.500Z,100682.47
2022-12-26T10:45:24.328Z,100693.03
2022-12-26T10:47:51.770Z,100693.47
2022-12-26T10:50:28.099Z,100671.69
2022-12-26T10:52:55.841Z,100680.84
2022-12-26T10:55:31.814Z,100682.56
2022-12-26T10:58:06.926Z,100637.03
2022-12-26T11:00:34.410Z,100649.97
2022-12-26T11:03:15.632Z,100682.78
2022-12-26T11:06:10.363Z,100661.59
2022-12-26T11:08:46.102Z,100677.00
2022-12-26T11:11:45.447Z,100684.22
2022-12-26T11:14:34.171Z,100685.06
2022-12-26T11:17:04.946Z,100681.91
2022-12-26T11:19:38.140Z,100667.50
2022-12-26T11:22:27.783Z,100689.06
2022-12-26T11:25:09.551Z,100696.47
2022-12-26T11:27:39.919Z,100697.91
2022-12-26T11:30:27.784Z,100702.81
2022-12-26T11:33:14.255Z,100709.38
2022-12-26T11:35:52.516Z,100680.44
2022-12-26T11:38:42.505Z,100700.91
2022-12-26T11:41:32.267Z,100702.59
2022-12-26T11:44:22.496Z,100698.41
2022-12-26T11:47:07.864Z,100717.06
2022-12-26T11:50:01.535Z,100700.00
2022-12-26T11:52:57.771Z,100711.81
2022-12-26T11:55:24.123Z,100709.13
2022-12-26T11:57:59.063Z,100692.81
2022-12-26T12:00:26.216Z,100706.25
2022-12-26T12:02:52.692Z,100721.72
2022-12-26T12:05:35.350Z,100733.94
2022-12-26T12:08:15.679Z,100723.28
2022-12-26T12:10:51.033Z,100716.22
2022-12-26T12:13:38.897Z,100717.69
2022-12-26T12:16:08.239Z,100731.09
2022-12-26T12:18:46.830Z,100726.03
2022-12-26T12:21:31.739Z,100688.97
2022-12-26T12:24:26.413Z,100705.94
2022-12-26T12:27:09.473Z,100692.53
2022-12-26T12:30:17.189Z,100701.78
2022-12-26T12:32:57.299Z,100728.75
2022-12-26T12:36:13.012Z,100709.69
2022-12-26T12:38:57.692Z,100709.84
2022-12-26T12:41:23.953Z,100728.22
2022-12-26T12:44:07.229Z,100612.56
2022-12-26T12:47:19.287Z,100744.06
2022-12-26T12:49:48.538Z,100750.97
2022-12-26T12:52:34.612Z,100757.81
2022-12-26T12:55:27.796Z,100746.44
2022-12-26T12:58:12.908Z,100737.41
2022-12-26T13:00:48.861Z,100699.38
2022-12-26T13:03:44.293Z,100757.34
2022-12-26T13:06:16.697Z,100761.75
2022-12-26T13:08:48.313Z,100653.97
2022-12-26T13:11:19.937Z,100750.47
2022-12-26T13:13:53.802Z,100732.19
2022-12-26T13:16:25.602Z,100689.41
2022-12-26T13:19:05.539Z,100737.63
2022-12-26T13:21:35.987Z,100730.91
2022-12-26T13:24:24.581Z,100737.53
2022-12-26T13:27:03.213Z,100736.53
2022-12-26T13:29:45.546Z,100776.78
2022-12-26T13:32:23.001Z,100785.53
2022-12-26T13:34:51.616Z,100698.78
2022-12-26T13:37:39.885Z,100785.66
2022-12-26T13:40:16.746Z,100727.91
2022-12-26T13:43:10.835Z,100718.97
2022-12-26T13:45:37.273Z,100782.59
2022-12-26T13:48:15.912Z,100790.44
2022-12-26T13:50:56.613Z,100779.41
2022-12-26T13:53:25.986Z,100801.56
2022-12-26T13:56:04.675Z,100767.69
2022-12-26T13:58:54.209Z,100802.09
2022-12-26T14:01:32.594Z,100807.38
2022-12-26T14:04:14.279Z,100782.28
2022-12-26T14:06:53.073Z,100817.81
2022-12-26T14:09:32.702Z,100799.75
2022-12-26T14:12:23.492Z,100819.81
2022-12-26T14:15:01.637Z,100844.84
2022-12-26T14:17:48.985Z,100860.03
2022-12-26T14:20:39.436Z,100831.53
2022-12-26T14:23:20.090Z,100863.16
2022-12-26T14:26:02.713Z,100836.69
2022-12-26T14:29:01.849Z,100819.41
2022-12-26T14:31:40.306Z,100878.38
2022-12-26T14:34:55.615Z,100880.09
2022-12-26T14:37:35.656Z,100863.25
2022-12-26T14:40:26.956Z,100864.00
2022-12-26T14:43:11.957Z,100868.13
2022-12-26T14:45:41.733Z,100886.50
2022-12-26T14:48:17.009Z,100888.91
2022-12-26T14:50:51.820Z,100892.03
2022-12-26T14:53:24.336Z,100892.44
2022-12-26T14:55:53.638Z,100897.94
2022-12-26T14:58:26.282Z,100916.91
2022-12-26T15:00:53.716Z,100900.53
2022-12-26T15:03:36.864Z,100805.06
2022-12-26T15:06:18.609Z,100938.22
2022-12-26T15:09:04.047Z,100915.63
2022-12-26T15:12:06.436Z,100907.28
2022-12-26T15:14:54.107Z,100940.78
2022-12-26T15:17:26.413Z,100956.34
2022-12-26T15:20:25.568Z,100934.03
2022-12-26T15:23:07.175Z,100976.38
2022-12-26T15:25:59.064Z,100976.94
2022-12-26T15:28:43.716Z,100983.97
2022-12-26T15:31:15.986Z,101005.31
2022-12-26T15:33:53.086Z,100980.09
2022-12-26T15:36:57.689Z,101015.78
2022-12-26T15:39:43.591Z,100988.38
2022-12-26T15:42:48.001Z,101021.91
2022-12-26T15:45:42.389Z,101031.84
2022-12-26T15:48:31.936Z,101034.16
2022-12-26T15:51:09.548Z,101037.03
2022-12-26T15:53:54.276Z,101034.34
2022-12-26T15:56:39.008Z,101030.91
2022-12-26T15:59:30.481Z,101005.09
2022-12-26T16:01:58.339Z,101013.59
2022-12-26T16:04:37.056Z,101017.13
2022-12-26T16:07:08.993Z,101050.94
2022-12-26T16:09:43.160Z,101064.91
2022-12-26T16:12:24.166Z,101070.16
2022-12-26T16:15:00.703Z,101055.47
2022-12-26T16:17:27.994Z,101072.84
2022-12-26T16:19:54.601Z,101105.06
2022-12-26T16:22:44.529Z,101100.63
2022-12-26T16:25:16.723Z,101105.88
2022-12-26T16:27:45.677Z,101082.44
2022-12-26T16:30:16.400Z,101124.06
2022-12-26T16:32:46.299Z,101126.72
2022-12-26T16:35:26.031Z,101108.53
2022-12-26T16:37:55.107Z,101124.09
2022-12-26T16:40:31.374Z,101033.97
2022-12-26T16:43:25.957Z,101130.22
2022-12-26T16:45:55.281Z,101126.72
2022-12-26T16:48:24.141Z,101130.19
2022-12-26T16:50:55.614Z,101109.41
2022-12-26T16:53:42.454Z,101052.19
2022-12-26T16:56:27.758Z,101027.94
2022-12-26T16:59:17.354Z,101131.13
2022-12-26T17:01:50.311Z,101132.81
2022-12-26T17:04:25.227Z,101082.53
2022-12-26T17:06:55.971Z,101097.28
2022-12-26T17:09:24.360Z,101166.66
2022-12-26T17:11:53.521Z,101173.53
2022-12-26T17:14:25.221Z,101157.97
2022-12-26T17:17:01.087Z,101181.34
2022-12-26T17:19:31.521Z,101187.47
2022-12-26T17:22:22.791Z,101196.03
2022-12-26T17:24:51.383Z,101166.63
2022-12-26T17:27:23.304Z,101201.31
2022-12-26T17:30:01.305Z,101201.31
2022-12-26T17:32:37.098Z,101206.53
2022-12-26T17:35:16.635Z,101204.81
2022-12-26T17:37:44.110Z,101182.25
2022-12-26T17:40:13.497Z,101213.47
2022-12-26T17:42:48.893Z,101213.44
2022-12-26T17:45:27.470Z,101219.53
2022-12-26T17:47:55.278Z,101110.13
2022-12-26T17:50:23.965Z,101229.91
2022-12-26T17:52:51.027Z,101126.56
2022-12-26T17:55:26.726Z,101231.56
2022-12-26T17:57:53.695Z,101230.63
2022-12-26T18:00:22.971Z,101234.22
2022-12-26T18:02:49.866Z,101222.06
2022-12-26T18:05:17.356Z,101110.03
2022-12-26T18:07:45.685Z,101234.09
2022-12-26T18:10:21.750Z,101235.13
2022-12-26T18:12:48.690Z,101242.03
2022-12-26T18:15:15.651Z,101158.56
2022-12-26T18:17:42.469Z,101166.31
2022-12-26T18:20:15.919Z,101175.88
2022-12-26T18:22:42.281Z,101161.97
2022-12-26T18:25:11.986Z,101285.34
2022-12-26T18:27:38.635Z,101173.22
2022-12-26T18:30:05.495Z,101231.41
2022-12-26T18:32:33.604Z,101291.38
2022-12-26T18:35:00.126Z,101248.72
2022-12-26T18:37:29.258Z,101226.13
2022-12-26T18:39:55.635Z,101231.28
2022-12-26T18:42:22.074Z,101231.28
2022-12-26T18:44:48.565Z,101218.19
2022-12-26T18:47:20.015Z,101264.19
2022-12-26T18:49:47.194Z,101236.34
2022-12-26T18:52:17.504Z,101251.13
2022-12-26T18:54:44.655Z,101273.63
2022-12-26T18:57:17.593Z,101207.53
2022-12-26T18:59:44.136Z,101234.47
2022-12-26T19:02:16.751Z,101345.66
2022-12-26T19:04:43.229Z,101239.56
2022-12-26T19:07:11.234Z,101273.53
2022-12-26T19:09:37.663Z,101267.28
2022-12-26T19:12:04.370Z,101269.78
2022-12-26T19:14:30.796Z,101281.81
2022-12-26T19:16:57.140Z,101238.53
2022-12-26T19:19:26.536Z,101266.03
2022-12-26T19:21:52.894Z,101285.44
2022-12-26T19:24:19.246Z,101275.03
2022-12-26T19:26:45.712Z,101325.28
2022-12-26T19:29:12.121Z,101366.88
2022-12-26T19:31:38.604Z,101408.66
2022-12-26T19:34:05.296Z,101398.41
2022-12-26T19:36:31.678Z,101348.00
2022-12-26T19:38:58.396Z,101384.59
2022-12-26T19:41:24.769Z,101303.59
2022-12-26T19:43:56.375Z,101313.09
2022-12-26T19:46:23.365Z,101412.28
2022-12-26T19:48:49.781Z,101394.84
2022-12-26T19:51:17.168Z,101398.25
2022-12-26T19:53:44.697Z,101407.03
2022-12-26T19:56:23.724Z,101384.66
2022-12-26T19:58:56.165Z,101315.59
2022-12-26T20:01:25.922Z,101307.94
2022-12-26T20:03:57.663Z,101426.16
2022-12-26T20:06:26.433Z,101423.59
2022-12-26T20:08:55.788Z,101399.84
2022-12-26T20:11:24.723Z,101426.81
2022-12-26T20:13:51.579Z,101399.97
2022-12-26T20:16:54.477Z,101371.06
2022-12-26T20:19:07.074Z,101383.22
2022-12-26T20:21:33.887Z,101365.88
2022-12-26T20:24:01.175Z,101408.63
2022-12-26T20:26:28.971Z,101356.34
2022-12-26T20:28:57.831Z,101320.78
2022-12-26T20:31:24.213Z,101328.50
2022-12-26T20:33:52.057Z,101323.06
2022-12-26T20:36:21.236Z,101419.69
2022-12-26T20:38:50.594Z,101453.84
2022-12-26T20:41:17.553Z,101380.88
2022-12-26T20:43:44.061Z,101376.22
2022-12-26T20:46:14.399Z,101464.22
2022-12-26T20:48:41.429Z,101416.09
2022-12-26T20:51:10.279Z,101451.00
2022-12-26T20:53:37.111Z,101366.13
2022-12-26T20:56:04.463Z,101472.88
2022-12-26T20:58:35.593Z,101482.50
2022-12-26T21:01:08.001Z,101466.97
2022-12-26T21:03:35.707Z,101453.94
2022-12-26T21:06:05.950Z,101433.63
2022-12-26T21:08:32.620Z,101365.06
2022-12-26T21:11:10.980Z,101284.44
2022-12-26T21:13:38.308Z,101473.34
2022-12-26T21:16:10.061Z,101483.50
2022-12-26T21:18:37.057Z,101466.88
2022-12-26T21:21:17.183Z,101411.19
2022-12-26T21:23:44.422Z,101401.44
2022-12-26T21:26:18.609Z,101471.06
2022-12-26T21:28:44.886Z,101486.88
2022-12-26T21:31:12.006Z,101500.53
2022-12-26T21:33:44.313Z,101390.88
2022-12-26T21:36:13.365Z,101403.94
2022-12-26T21:38:40.673Z,101499.03
2022-12-26T21:41:11.368Z,101505.94
2022-12-26T21:43:38.122Z,101432.72
2022-12-26T21:46:11.095Z,101389.25
2022-12-26T21:48:37.510Z,101517.97
2022-12-26T21:51:08.535Z,101411.88
2022-12-26T21:53:35.439Z,101493.41
2022-12-26T21:56:06.555Z,101479.50
2022-12-26T21:58:52.999Z,101454.25
2022-12-26T22:01:21.418Z,101470.00
2022-12-26T22:04:06.600Z,101451.44
2022-12-26T22:06:33.069Z,101477.63
2022-12-26T22:08:59.994Z,101528.25
2022-12-26T22:11:45.510Z,101496.91
2022-12-26T22:14:12.611Z,101512.38
2022-12-26T22:16:39.510Z,101531.56
2022-12-26T22:19:06.613Z,101513.31
2022-12-26T22:21:33.218Z,101431.38
2022-12-26T22:23:59.887Z,101541.91
2022-12-26T22:26:28.051Z,101540.16
2022-12-26T22:28:55.928Z,101536.72
2022-12-26T22:31:32.189Z,101479.22
2022-12-26T22:34:26.199Z,101520.06
2022-12-26T22:36:55.744Z,101533.22
2022-12-26T22:39:22.192Z,101531.38
2022-12-26T22:41:48.534Z,101503.44
2022-12-26T22:44:15.339Z,101515.59
2022-12-26T22:46:42.123Z,101539.88
2022-12-26T22:49:09.050Z,101505.22
2022-12-26T22:51:36.812Z,101560.97
2022-12-26T22:54:03.193Z,101465.06
2022-12-26T22:56:29.982Z,101549.59
2022-12-26T22:59:00.515Z,101547.09
2022-12-26T23:01:27.127Z,101515.56
2022-12-26T23:03:53.630Z,101517.38
2022-12-26T23:06:31.552Z,101582.09
2022-12-26T23:09:01.154Z,101574.09
2022-12-26T23:11:34.679Z,101573.84
2022-12-26T23:14:02.598Z,101585.34
2022-12-26T23:16:51.555Z,101586.94
2022-12-26T23:20:01.518Z,101586.94
2022-12-26T23:22:28.614Z,101552.81
2022-12-26T23:24:54.948Z,101551.97
2022-12-26T23:27:40.060Z,101558.94
2022-12-26T23:30:19.365Z,101572.69
2022-12-26T23:32:54.743Z,101576.78
2022-12-26T23:35:22.412Z,101490.00
2022-12-26T23:37:49.221Z,101555.38
2022-12-26T23:40:16.929Z,101533.63
2022-12-26T23:42:43.533Z,101553.59
2022-12-26T23:45:11.679Z,101596.16
2022-12-26T23:47:39.528Z,101594.28
2022-12-26T23:50:07.110Z,101466.41
2022-12-26T23:52:34.032Z,101588.28
2022-12-26T23:55:00.397Z,101555.81
2022-12-26T23:57:26.732Z,101528.34
2022-12-26T23:59:53.253Z,101565.63
